createdAt,value
2022-11-16T00:01:27.145Z,7.35
2022-11-16T00:06:21.940Z,6.80
2022-11-16T00:11:17.144Z,6.55
2022-11-16T00:16:30.898Z,6.18
2022-11-16T00:21:26.095Z,6.90
2022-11-16T00:26:19.208Z,6.57
2022-11-16T00:31:16.304Z,6.53
2022-11-16T00:36:12.932Z,7.22
2022-11-16T00:41:07.530Z,7.57
2022-11-16T00:46:01.294Z,6.90
2022-11-16T00:50:56.345Z,7.05
2022-11-16T00:55:50.435Z,6.88
2022-11-16T01:00:45.927Z,6.95
2022-11-16T01:05:39.466Z,7.05
2022-11-16T01:10:33.354Z,7.50
2022-11-16T01:15:29.888Z,6.80
2022-11-16T01:20:27.977Z,6.75
2022-11-16T01:25:22.194Z,7.32
2022-11-16T01:30:16.694Z,6.80
2022-11-16T01:35:19.771Z,6.85
2022-11-16T01:40:14.913Z,6.93
2022-11-16T01:45:54.185Z,7.03
2022-11-16T01:51:00.326Z,7.38
2022-11-16T01:55:56.453Z,6.57
2022-11-16T02:01:09.756Z,6.72
2022-11-16T02:06:31.493Z,7.03
2022-11-16T02:12:10.080Z,7.00
2022-11-16T02:17:09.372Z,7.00
2022-11-16T02:27:40.457Z,6.90
2022-11-16T02:33:22.402Z,6.80
2022-11-16T02:38:32.177Z,6.63
2022-11-16T02:43:31.492Z,6.15
2022-11-16T02:48:30.549Z,6.70
2022-11-16T02:53:24.973Z,6.35
2022-11-16T02:58:25.920Z,6.85
2022-11-16T03:03:19.309Z,7.15
2022-11-16T03:08:21.542Z,6.80
2022-11-16T03:13:17.888Z,6.68
2022-11-16T03:18:17.130Z,6.18
2022-11-16T03:23:12.099Z,6.18
2022-11-16T03:28:22.727Z,6.60
2022-11-16T03:33:43.936Z,6.18
2022-11-16T03:38:38.724Z,7.03
2022-11-16T03:43:34.309Z,6.45
2022-11-16T03:48:46.414Z,6.75
2022-11-16T03:53:47.549Z,7.13
2022-11-16T03:58:41.362Z,6.72
2022-11-16T04:03:35.246Z,6.57
2022-11-16T04:08:47.192Z,6.65
2022-11-16T04:13:59.391Z,6.85
2022-11-16T04:19:12.874Z,6.35
2022-11-16T04:24:13.321Z,6.47
2022-11-16T04:29:07.429Z,6.82
2022-11-16T04:34:38.027Z,6.25
2022-11-16T04:39:37.481Z,5.75
2022-11-16T04:44:53.426Z,6.68
2022-11-16T04:49:48.097Z,6.30
2022-11-16T04:54:42.147Z,6.07
2022-11-16T04:59:36.112Z,6.32
2022-11-16T05:04:30.244Z,6.13
2022-11-16T05:09:24.314Z,6.15
2022-11-16T05:14:17.864Z,6.60
2022-11-16T05:19:28.380Z,6.63
2022-11-16T05:24:34.604Z,6.32
2022-11-16T05:29:29.510Z,6.97
2022-11-16T05:34:24.334Z,6.25
2022-11-16T05:39:17.441Z,6.93
2022-11-16T05:44:11.528Z,6.65
2022-11-16T05:49:08.736Z,6.30
2022-11-16T05:54:02.974Z,6.72
2022-11-16T05:58:56.725Z,6.50
2022-11-16T06:03:51.534Z,6.22
2022-11-16T06:08:44.585Z,6.07
2022-11-16T06:13:42.783Z,5.65
2022-11-16T06:18:42.579Z,5.60
2022-11-16T06:23:36.142Z,5.80
2022-11-16T06:28:29.726Z,5.72
2022-11-16T06:33:23.719Z,6.97
2022-11-16T06:38:20.386Z,6.38
2022-11-16T06:43:17.025Z,6.88
2022-11-16T06:48:10.623Z,6.78
2022-11-16T06:53:04.345Z,5.80
2022-11-16T06:57:57.797Z,6.10
2022-11-16T07:02:51.863Z,6.05
2022-11-16T07:07:46.552Z,6.70
2022-11-16T07:12:39.181Z,6.40
2022-11-16T07:17:34.274Z,6.22
2022-11-16T07:22:28.687Z,6.95
2022-11-16T07:27:21.379Z,6.85
2022-11-16T07:32:17.581Z,6.72
2022-11-16T07:37:35.453Z,6.22
2022-11-16T07:42:36.121Z,6.13
2022-11-16T07:47:53.373Z,6.10
2022-11-16T07:58:06.048Z,6.10
2022-11-16T08:02:59.429Z,5.45
2022-11-16T08:07:53.953Z,5.53
2022-11-16T08:12:50.558Z,5.30
2022-11-16T08:17:46.166Z,5.18
2022-11-16T08:22:39.838Z,4.70
2022-11-16T08:27:34.337Z,4.35
2022-11-16T08:32:29.964Z,4.45
2022-11-16T08:37:23.777Z,3.97
2022-11-16T08:42:17.214Z,3.92
2022-11-16T08:47:12.495Z,3.72
2022-11-16T08:52:14.170Z,3.37
2022-11-16T08:57:09.373Z,3.35
2022-11-16T09:02:05.252Z,2.83
2022-11-16T09:06:59.042Z,2.45
2022-11-16T09:11:54.348Z,2.60
2022-11-16T09:16:48.449Z,3.00
2022-11-16T09:21:42.242Z,2.70
2022-11-16T09:26:36.192Z,2.95
2022-11-16T09:31:31.905Z,2.72
2022-11-16T09:36:26.693Z,2.25
2022-11-16T09:41:41.290Z,2.33
2022-11-16T09:46:47.880Z,2.45
2022-11-16T09:51:44.091Z,2.30
2022-11-16T09:56:41.272Z,2.15
2022-11-16T10:01:43.786Z,1.92
2022-11-16T10:06:59.257Z,2.25
2022-11-16T10:12:29.724Z,2.08
2022-11-16T10:17:32.955Z,1.70
2022-11-16T10:22:47.773Z,2.25
2022-11-16T10:27:49.310Z,1.80
2022-11-16T10:32:53.281Z,1.80
2022-11-16T10:37:50.442Z,1.42
2022-11-16T10:42:45.378Z,1.70
2022-11-16T10:47:51.397Z,1.98
2022-11-16T10:52:46.316Z,1.83
2022-11-16T10:58:04.599Z,1.90
2022-11-16T11:03:03.978Z,1.55
2022-11-16T11:08:12.275Z,1.70
2022-11-16T11:13:11.086Z,1.40
2022-11-16T11:18:20.579Z,1.70
2022-11-16T11:23:20.805Z,1.30
2022-11-16T11:28:32.729Z,1.20
2022-11-16T11:33:28.201Z,1.30
2022-11-16T11:38:22.664Z,1.30
2022-11-16T11:43:38.591Z,1.30
2022-11-16T11:48:58.502Z,1.10
2022-11-16T11:53:57.360Z,1.23
2022-11-16T11:58:54.568Z,1.33
2022-11-16T12:04:10.445Z,1.08
2022-11-16T12:09:26.668Z,1.40
2022-11-16T12:14:41.536Z,1.75
2022-11-16T12:19:59.116Z,2.67
2022-11-16T12:25:22.540Z,1.98
2022-11-16T12:30:22.733Z,2.90
2022-11-16T12:35:36.867Z,9.10
2022-11-16T12:40:53.897Z,7.95
2022-11-16T12:45:58.825Z,6.80
2022-11-16T12:51:21.447Z,5.53
2022-11-16T12:56:28.403Z,4.75
2022-11-16T13:02:06.120Z,5.57
2022-11-16T13:07:32.069Z,4.43
2022-11-16T13:12:32.163Z,4.72
2022-11-16T13:17:36.191Z,3.97
2022-11-16T13:22:34.620Z,3.90
2022-11-16T13:27:37.803Z,3.58
2022-11-16T13:32:51.930Z,3.42
2022-11-16T13:37:48.841Z,3.35
2022-11-16T13:43:07.301Z,3.20
2022-11-16T13:48:04.205Z,2.92
2022-11-16T13:58:24.123Z,2.78
2022-11-16T14:03:17.086Z,2.85
2022-11-16T14:08:25.313Z,3.30
2022-11-16T14:13:30.848Z,3.08
2022-11-16T14:18:37.208Z,2.70
2022-11-16T14:24:06.368Z,3.22
2022-11-16T14:29:34.739Z,2.75
2022-11-16T14:34:43.684Z,2.95
2022-11-16T14:39:41.487Z,3.28
2022-11-16T14:44:39.571Z,2.92
2022-11-16T14:49:36.544Z,2.97
2022-11-16T14:55:01.919Z,2.85
2022-11-16T15:00:19.618Z,3.10
2022-11-16T15:05:19.152Z,3.05
2022-11-16T15:10:19.369Z,2.67
2022-11-16T15:15:11.738Z,3.38
2022-11-16T15:20:15.101Z,2.90
2022-11-16T15:25:44.525Z,2.97
2022-11-16T15:30:40.904Z,3.20
2022-11-16T15:35:37.037Z,2.90
2022-11-16T15:40:31.527Z,3.20
2022-11-16T15:45:26.340Z,2.47
2022-11-16T15:50:23.654Z,2.50
2022-11-16T15:55:38.699Z,2.30
2022-11-16T16:00:35.320Z,2.83
2022-11-16T16:05:57.925Z,2.88
2022-11-16T16:11:15.536Z,2.15
2022-11-16T16:16:32.426Z,2.30
2022-11-16T16:21:36.119Z,2.80
2022-11-16T16:26:30.325Z,2.28
2022-11-16T16:31:24.315Z,2.08
2022-11-16T16:36:17.091Z,2.25
2022-11-16T16:41:23.725Z,2.65
2022-11-16T16:46:18.059Z,1.95
2022-11-16T16:51:12.929Z,1.90
2022-11-16T16:56:14.248Z,2.22
2022-11-16T17:01:09.691Z,2.25
2022-11-16T17:06:02.532Z,2.30
2022-11-16T17:10:56.095Z,2.10
2022-11-16T17:15:49.778Z,2.10
2022-11-16T17:20:45.473Z,3.03
2022-11-16T17:25:39.205Z,2.15
2022-11-16T17:30:33.120Z,2.47
2022-11-16T17:35:26.921Z,2.22
2022-11-16T17:40:22.377Z,2.42
2022-11-16T17:45:15.391Z,2.00
2022-11-16T17:50:11.624Z,1.92
2022-11-16T17:55:07.621Z,1.70
2022-11-16T18:00:01.241Z,2.20
2022-11-16T18:04:57.890Z,1.58
2022-11-16T18:09:52.117Z,2.03
2022-11-16T18:15:13.474Z,1.80
2022-11-16T18:20:05.057Z,2.00
2022-11-16T18:24:59.397Z,4.90
2022-11-16T18:29:53.831Z,9.98
2022-11-16T18:34:48.036Z,7.22
2022-11-16T18:39:42.497Z,6.85
2022-11-16T18:44:36.554Z,6.57
2022-11-16T18:49:30.272Z,5.88
2022-11-16T18:54:24.743Z,5.97
2022-11-16T18:59:18.979Z,3.20
2022-11-16T19:04:13.059Z,2.85
2022-11-16T19:09:10.532Z,2.08
2022-11-16T19:14:08.242Z,1.50
2022-11-16T19:19:04.836Z,1.52
2022-11-16T19:23:58.289Z,1.40
2022-11-16T19:28:52.723Z,2.28
2022-11-16T19:33:47.528Z,1.40
2022-11-16T19:38:41.075Z,1.65
2022-11-16T19:43:35.684Z,2.08
2022-11-16T19:48:30.439Z,2.28
2022-11-16T19:53:23.660Z,1.30
2022-11-16T19:58:17.845Z,1.30
2022-11-16T20:03:12.154Z,1.45
2022-11-16T20:08:06.053Z,1.35
2022-11-16T20:12:59.973Z,1.58
2022-11-16T20:17:53.407Z,1.27
2022-11-16T20:22:49.220Z,1.80
2022-11-16T20:27:43.442Z,2.25
2022-11-16T20:32:36.503Z,3.15
2022-11-16T20:37:30.893Z,3.88
2022-11-16T20:42:25.551Z,3.40
2022-11-16T20:47:19.784Z,3.75
2022-11-16T20:52:13.479Z,4.80
2022-11-16T20:57:07.673Z,4.13
2022-11-16T21:02:01.765Z,3.92
2022-11-16T21:06:59.103Z,3.28
2022-11-16T21:12:11.520Z,4.20
2022-11-16T21:17:05.476Z,4.15
2022-11-16T21:21:59.273Z,4.25
2022-11-16T21:26:53.105Z,4.97
2022-11-16T21:31:46.781Z,4.28
2022-11-16T21:36:41.089Z,4.90
2022-11-16T21:41:35.018Z,3.60
2022-11-16T21:46:29.060Z,3.25
2022-11-16T21:51:26.017Z,3.42
2022-11-16T21:56:21.792Z,2.80
2022-11-16T22:01:18.639Z,3.00
2022-11-16T22:06:50.205Z,2.63
2022-11-16T22:11:44.126Z,2.70
2022-11-16T22:16:37.650Z,2.60
2022-11-16T22:21:32.331Z,2.60
2022-11-16T22:26:25.905Z,2.30
2022-11-16T22:31:21.062Z,2.13
2022-11-16T22:36:14.859Z,2.40
2022-11-16T22:41:08.099Z,2.22
2022-11-16T22:46:02.862Z,2.50
2022-11-16T22:51:22.541Z,2.15
2022-11-16T22:56:16.390Z,2.15
2022-11-16T23:01:10.178Z,2.15
2022-11-16T23:06:06.911Z,2.00
2022-11-16T23:11:24.831Z,2.28
2022-11-16T23:16:22.703Z,2.15
2022-11-16T23:21:35.042Z,2.10
2022-11-16T23:26:46.277Z,2.30
2022-11-16T23:31:40.327Z,1.95
2022-11-16T23:36:35.153Z,2.53
2022-11-16T23:41:47.616Z,2.17
2022-11-16T23:46:40.749Z,1.75
2022-11-16T23:51:34.212Z,2.10
2022-11-16T23:56:28.416Z,1.67
